Time;durP1;ratioP1;P1;durP2;ratioP2;P2;SDS_P1;SDS_P2;PMS_P1;PMS_P2;Temp;Humidity;BMP_temperature;BMP_pressure;BME280_temperature;BME280_humidity;BME280_pressure;Samples;Min_cycle;Max_cycle;Signal;HPM_P1;HPM_P2
2023/10/20 00:01:03;;;;;;;0.15;0.15;;;;;;;7.11;84.34;99108.59;15678129;28;20106;-51
2023/10/20 00:08:36;;;;;;;0.40;0.40;;;;;;;7.09;84.11;99118.69;15677372;28;20053;-50
2023/10/20 00:16:11;;;;;;;0.93;0.90;;;;;;;7.00;84.91;99103.25;15675744;28;20382;-51
2023/10/20 00:23:44;;;;;;;1.63;0.20;;;;;;;7.18;84.53;99102.34;15657895;28;20489;-52
2023/10/20 00:31:20;;;;;;;5.60;0.85;;;;;;;7.38;83.97;99095.69;15658928;28;20041;-50
2023/10/20 00:38:53;;;;;;;6.30;2.17;;;;;;;7.13;84.32;99095.03;15658532;28;20037;-52
2023/10/20 00:46:28;;;;;;;0.32;0.32;;;;;;;7.14;84.55;99091.34;15658274;28;20084;-53
2023/10/20 00:54:02;;;;;;;0.60;0.50;;;;;;;7.33;83.47;99068.06;15657011;28;20539;-50
2023/10/20 01:01:37;;;;;;;0.20;0.20;;;;;;;6.80;85.84;99061.63;15675064;28;20414;-51
2023/10/20 01:09:11;;;;;;;1.75;1.33;;;;;;;6.93;85.95;99071.31;15656019;28;20052;-50
2023/10/20 01:16:45;;;;;;;0.45;0.30;;;;;;;6.90;86.50;99063.75;15655168;28;20041;-51
2023/10/20 01:24:21;;;;;;;0.00;0.00;;;;;;;6.82;86.79;99043.56;15655460;28;20553;-51
2023/10/20 01:31:54;;;;;;;1.20;0.75;;;;;;;6.84;86.83;99051.34;15673221;28;20158;-49
2023/10/20 01:39:29;;;;;;;0.65;0.65;;;;;;;6.89;87.08;99041.59;15671673;28;20048;-51
2023/10/20 01:47:02;;;;;;;0.20;0.20;;;;;;;6.75;86.49;99050.84;15637692;28;20080;-50
2023/10/20 01:54:37;;;;;;;0.47;0.40;;;;;;;6.74;86.42;99045.75;15653599;28;20087;-52
2023/10/20 02:02:13;;;;;;;0.43;0.43;;;;;;;6.57;87.30;99024.22;15672085;28;20570;-50
2023/10/20 02:09:50;;;;;;;0.40;0.32;;;;;;;6.71;86.57;99031.00;15653348;28;20060;-53
2023/10/20 02:17:26;;;;;;;0.60;0.52;;;;;;;6.71;87.57;99032.84;15651688;28;20091;-53
2023/10/20 02:25:10;;;;;;;0.57;0.57;;;;;;;6.86;86.59;99012.75;15644331;28;20036;-53
2023/10/20 02:32:44;;;;;;;0.00;0.00;;;;;;;6.71;87.35;98998.19;15615829;28;20312;-51
2023/10/20 02:40:20;;;;;;;2.05;0.43;;;;;;;6.83;87.80;98986.53;15631335;28;20115;-53
2023/10/20 02:47:53;;;;;;;1.10;1.00;;;;;;;6.60;88.50;98987.28;15646682;28;20069;-50
2023/10/20 02:55:28;;;;;;;0.20;0.20;;;;;;;6.83;87.54;98980.38;15614196;28;20061;-51
2023/10/20 03:03:02;;;;;;;0.10;0.10;;;;;;;6.68;87.30;98972.00;15651450;28;20037;-50
2023/10/20 03:10:38;;;;;;;0.35;0.30;;;;;;;6.75;87.56;98965.53;15650592;28;20115;-51
2023/10/20 03:18:14;;;;;;;0.65;0.52;;;;;;;6.79;86.78;98958.69;15666833;28;20155;-51
2023/10/20 03:25:50;;;;;;;0.35;0.35;;;;;;;7.03;85.90;98940.84;15615033;28;20380;-51
2023/10/20 03:33:26;;;;;;;0.05;0.05;;;;;;;6.91;86.78;98948.06;15640679;28;20414;-51
2023/10/20 03:41:09;;;;;;;0.10;0.10;;;;;;;6.97;86.04;98948.97;15667715;28;20125;-52
2023/10/20 03:48:43;;;;;;;0.22;0.22;;;;;;;6.78;87.03;98919.75;15631784;28;20132;-51
2023/10/20 03:56:23;;;;;;;0.35;0.35;;;;;;;6.81;87.10;98903.28;15592038;28;20049;-52
2023/10/20 04:03:56;;;;;;;0.47;0.38;;;;;;;6.64;87.10;98892.47;15653984;28;20078;-54
2023/10/20 04:11:34;;;;;;;0.70;0.70;;;;;;;6.51;88.17;98873.22;15677433;28;20504;-51
2023/10/20 04:19:17;;;;;;;0.00;0.00;;;;;;;6.44;88.27;98867.19;15674790;28;20044;-54
2023/10/20 04:26:52;;;;;;;0.00;0.00;;;;;;;6.78;87.13;98892.28;15677329;28;20061;-52
2023/10/20 04:58:34;;;;;;;0.00;0.00;;;;;;;6.68;85.88;98886.69;15535467;28;20581;-49
2023/10/20 05:06:22;;;;;;;0.00;0.00;;;;;;;6.29;87.36;98883.59;15501770;28;20067;-51
2023/10/20 05:13:57;;;;;;;0.10;0.10;;;;;;;6.37;87.33;98883.28;15532744;28;20044;-48
2023/10/20 05:21:33;;;;;;;0.22;0.20;;;;;;;6.31;87.07;98873.53;15552322;28;20041;-50
2023/10/20 05:29:08;;;;;;;0.00;0.00;;;;;;;6.21;87.02;98876.75;15548360;28;20402;-48
2023/10/20 05:36:45;;;;;;;2.05;1.40;;;;;;;6.22;87.54;98873.06;15528112;28;20112;-51
2023/10/20 05:44:23;;;;;;;0.10;0.10;;;;;;;6.03;88.05;98863.50;15532875;28;20038;-49
2023/10/20 05:51:56;;;;;;;0.00;0.00;;;;;;;5.96;88.26;98849.44;15554789;28;20073;-49
2023/10/20 05:59:30;;;;;;;0.08;0.05;;;;;;;6.18;87.13;98847.09;15554140;28;20042;-48
2023/10/20 06:07:05;;;;;;;1.80;1.65;;;;;;;6.28;86.65;98842.00;15536097;28;20521;-51
2023/10/20 06:14:40;;;;;;;0.20;0.20;;;;;;;6.06;87.52;98825.75;15535319;28;20045;-49
2023/10/20 06:22:13;;;;;;;0.05;0.05;;;;;;;6.30;86.37;98848.75;15533387;28;20108;-48
2023/10/20 06:29:54;;;;;;;1.23;0.90;;;;;;;6.24;86.60;98852.31;15524912;28;20324;-50
2023/10/20 06:37:36;;;;;;;0.30;0.30;;;;;;;6.24;86.29;98833.66;15543539;28;20452;-49
2023/10/20 06:45:15;;;;;;;0.00;0.00;;;;;;;6.06;86.71;98823.91;15547988;28;20112;-49
2023/10/20 06:52:48;;;;;;;0.00;0.00;;;;;;;5.93;86.89;98812.66;15551177;28;20132;-50
2023/10/20 07:00:23;;;;;;;1.08;0.38;;;;;;;6.09;86.14;98794.13;15531250;28;20050;-51
2023/10/20 07:07:59;;;;;;;1.75;1.65;;;;;;;6.27;86.26;98797.78;15530932;28;20046;-49
2023/10/20 07:15:34;;;;;;;0.00;0.00;;;;;;;5.96;87.40;98767.72;15545810;28;20045;-52
2023/10/20 07:23:09;;;;;;;0.00;0.00;;;;;;;5.96;87.31;98766.91;15541271;28;20050;-52
2023/10/20 07:30:43;;;;;;;0.10;0.10;;;;;;;5.89;87.70;98772.31;15553069;28;20046;-51
2023/10/20 07:38:18;;;;;;;0.00;0.00;;;;;;;5.82;87.97;98755.59;15540187;28;20459;-52
2023/10/20 07:45:52;;;;;;;0.20;0.20;;;;;;;5.75;87.38;98737.09;15543702;28;20066;-50
2023/10/20 07:53:26;;;;;;;0.47;0.47;;;;;;;5.86;86.90;98738.94;15510802;28;20042;-52
2023/10/20 08:01:03;;;;;;;0.55;0.43;;;;;;;5.87;87.03;98721.13;15476286;28;20039;-50
2023/10/20 08:08:37;;;;;;;0.00;0.00;;;;;;;5.81;87.00;98696.25;15499020;28;20042;-51
2023/10/20 08:16:12;;;;;;;0.35;0.35;;;;;;;5.95;86.54;98691.53;15495149;28;20104;-48
2023/10/20 08:23:45;;;;;;;3.30;0.63;;;;;;;5.93;86.23;98719.44;15505853;28;20054;-50
2023/10/20 08:31:21;;;;;;;0.13;0.13;;;;;;;5.92;86.15;98726.59;15505500;28;20116;-51
2023/10/20 08:38:55;;;;;;;0.00;0.00;;;;;;;6.00;86.80;98758.22;15513500;28;20046;-49
2023/10/20 08:46:31;;;;;;;0.00;0.00;;;;;;;5.93;86.02;98709.59;15509124;28;20530;-49
2023/10/20 08:54:08;;;;;;;0.17;0.17;;;;;;;6.00;86.62;98701.50;15487262;28;20038;-49
2023/10/20 09:01:44;;;;;;;0.00;0.00;;;;;;;5.96;86.22;98716.31;15499780;28;20495;-48
2023/10/20 09:09:19;;;;;;;0.00;0.00;;;;;;;5.90;86.45;98707.38;15503732;28;20042;-50
2023/10/20 09:16:57;;;;;;;0.22;0.22;;;;;;;5.78;86.93;98690.56;15499579;28;20411;-50
2023/10/20 09:24:31;;;;;;;0.00;0.00;;;;;;;5.60;87.42;98680.81;15503011;28;20052;-51
2023/10/20 09:32:06;;;;;;;0.00;0.00;;;;;;;5.75;87.29;98665.22;15507760;28;20152;-49
2023/10/20 09:39:43;;;;;;;0.00;0.00;;;;;;;5.63;87.92;98665.19;15493431;28;20093;-50
2023/10/20 09:47:23;;;;;;;0.10;0.10;;;;;;;5.49;87.78;98644.34;15501924;28;20105;-49
2023/10/20 09:54:57;;;;;;;0.38;0.38;;;;;;;5.58;86.96;98611.03;15486866;28;20463;-49
2023/10/20 10:02:32;;;;;;;0.45;0.45;;;;;;;5.51;87.42;98634.28;15498012;28;20046;-50
2023/10/20 10:10:06;;;;;;;0.08;0.08;;;;;;;5.21;86.87;98565.19;15499077;28;20136;-48
2023/10/20 10:17:47;;;;;;;0.00;0.00;;;;;;;5.34;87.28;98624.31;15490398;28;20481;-50
2023/10/20 10:25:35;;;;;;;0.45;0.45;;;;;;;5.68;86.87;98631.75;15494659;28;20042;-51
2023/10/20 10:33:11;;;;;;;0.00;0.00;;;;;;;5.37;86.82;98602.56;15500994;22;20046;31
2023/10/20 10:40:46;;;;;;;0.10;0.10;;;;;;;5.49;86.93;98623.88;15423155;28;20050;-48
2023/10/20 10:48:25;;;;;;;0.20;0.20;;;;;;;5.37;87.29;98625.72;15425954;28;20054;-51
2023/10/20 10:55:59;;;;;;;0.98;0.57;;;;;;;5.38;86.95;98632.66;15418251;28;20090;-49
2023/10/20 11:03:34;;;;;;;0.00;0.00;;;;;;;5.55;86.37;98646.09;15417199;28;20359;-50
2023/10/20 11:11:07;;;;;;;0.00;0.00;;;;;;;5.46;86.60;98642.16;15436919;28;20039;-49
2023/10/20 11:18:47;;;;;;;0.10;0.10;;;;;;;5.47;87.33;98635.78;15429830;28;20049;-49
2023/10/20 11:26:24;;;;;;;0.10;0.10;;;;;;;5.42;86.59;98643.66;15421513;28;20101;-49
2023/10/20 11:33:59;;;;;;;0.00;0.00;;;;;;;5.30;87.32;98647.06;15420863;28;20031;-50
2023/10/20 11:41:32;;;;;;;0.38;0.38;;;;;;;5.65;87.25;98666.84;15419831;28;20108;-50
2023/10/20 11:49:06;;;;;;;0.10;0.10;;;;;;;5.49;87.15;98666.44;15426661;28;20495;-55
2023/10/20 11:56:40;;;;;;;0.08;0.08;;;;;;;5.45;87.04;98651.16;15415681;28;20055;-52
2023/10/20 12:04:16;;;;;;;0.00;0.00;;;;;;;5.52;86.67;98641.22;15429258;28;20043;-47
2023/10/20 12:11:49;;;;;;;0.20;0.20;;;;;;;5.44;86.29;98625.59;15427580;28;20046;-50
2023/10/20 12:19:24;;;;;;;1.08;0.88;;;;;;;5.54;86.72;98601.88;15416719;28;20047;-54
2023/10/20 12:26:59;;;;;;;0.00;0.00;;;;;;;5.60;85.97;98585.03;15419872;28;20047;-49
2023/10/20 12:34:33;;;;;;;0.00;0.00;;;;;;;5.64;85.99;98583.50;15422696;28;20043;-49
2023/10/20 12:42:06;;;;;;;0.00;0.00;;;;;;;5.56;86.01;98554.59;15423423;28;20039;-50
2023/10/20 12:49:41;;;;;;;0.63;0.63;;;;;;;5.60;85.94;98497.19;15411949;28;20071;-51
2023/10/20 12:57:14;;;;;;;0.10;0.10;;;;;;;5.44;86.64;98511.19;15391522;28;20413;-51
2023/10/20 13:04:49;;;;;;;0.20;0.20;;;;;;;5.41;86.72;98493.03;15419964;28;20377;-52
2023/10/20 13:12:22;;;;;;;1.08;0.98;;;;;;;5.71;86.09;98507.00;15414819;28;20047;-51
2023/10/20 13:19:58;;;;;;;0.00;0.00;;;;;;;5.50;85.40;98463.19;15410928;28;20043;-48
2023/10/20 13:27:32;;;;;;;0.30;0.20;;;;;;;5.41;86.95;98414.06;15410121;28;20061;-49
2023/10/20 13:35:07;;;;;;;0.03;0.03;;;;;;;5.37;86.18;98420.88;15422263;28;20039;-47
2023/10/20 13:42:40;;;;;;;0.10;0.10;;;;;;;5.32;86.45;98429.56;15423523;28;20047;-51
2023/10/20 13:50:17;;;;;;;0.00;0.00;;;;;;;5.35;86.05;98399.81;15403529;28;20050;-50
2023/10/20 13:57:50;;;;;;;0.03;0.03;;;;;;;5.35;86.80;98425.59;15420092;28;20047;-54
2023/10/20 14:05:24;;;;;;;0.00;0.00;;;;;;;5.27;86.76;98439.25;15423874;28;20376;-51
2023/10/20 14:12:58;;;;;;;0.00;0.00;;;;;;;5.23;86.81;98444.25;15418496;28;20043;-53
2023/10/20 14:20:33;;;;;;;0.00;0.00;;;;;;;5.44;86.45;98439.38;15421922;28;20690;-52
2023/10/20 14:28:06;;;;;;;0.73;0.73;;;;;;;5.12;86.95;98411.28;15407226;28;20527;-52
2023/10/20 14:35:41;;;;;;;0.00;0.00;;;;;;;5.31;86.67;98406.63;15419049;28;20046;-50
2023/10/20 14:43:14;;;;;;;0.30;0.30;;;;;;;5.34;86.25;98410.69;15417258;28;20069;-51
2023/10/20 14:50:50;;;;;;;0.00;0.00;;;;;;;5.22;86.53;98407.22;15402161;28;20063;-50
2023/10/20 14:58:24;;;;;;;0.80;0.73;;;;;;;5.08;86.95;98382.72;15414651;28;20416;-52
2023/10/20 15:06:01;;;;;;;0.00;0.00;;;;;;;5.24;85.62;98410.47;15405644;28;20074;-52
2023/10/20 15:13:35;;;;;;;0.00;0.00;;;;;;;4.99;86.68;98376.13;15403949;28;20062;-52
2023/10/20 15:21:09;;;;;;;;;;;;;;;5.00;86.53;98433.59;15397283;28;20144;-48
2023/10/20 15:28:42;;;;;;;0.22;0.22;;;;;;;4.99;86.23;98413.34;15395899;28;20354;-52
2023/10/20 15:36:17;;;;;;;0.00;0.00;;;;;;;5.06;85.94;98404.25;15401267;28;20093;-55
2023/10/20 15:43:52;;;;;;;0.00;0.00;;;;;;;4.92;86.30;98415.34;15421014;28;20054;-52
2023/10/20 15:51:26;;;;;;;0.10;0.10;;;;;;;4.95;86.57;98383.00;15411206;28;20536;-51
2023/10/20 15:58:59;;;;;;;0.00;0.00;;;;;;;5.06;85.67;98412.22;15398931;28;20121;-55
2023/10/20 16:06:33;;;;;;;0.00;0.00;;;;;;;5.09;85.57;98422.41;15407141;28;20101;-55
2023/10/20 16:14:08;;;;;;;0.05;0.05;;;;;;;4.86;86.99;98447.13;15413679;28;20413;-53
2023/10/20 16:21:43;;;;;;;0.00;0.00;;;;;;;5.02;86.06;98442.16;15425502;28;20132;-53
2023/10/20 16:29:16;;;;;;;0.00;0.00;;;;;;;5.07;86.06;98453.72;15406420;28;20070;-50
2023/10/20 16:36:50;;;;;;;0.00;0.00;;;;;;;5.08;86.34;98439.41;15478322;22;20084;-48
2023/10/20 16:44:26;;;;;;;0.00;0.00;;;;;;;5.03;86.76;98431.28;15526192;28;20046;-48
2023/10/20 16:52:02;;;;;;;0.00;0.00;;;;;;;5.00;87.24;98442.41;15560493;28;20034;-51
2023/10/20 16:59:35;;;;;;;0.00;0.00;;;;;;;5.34;85.91;98454.06;15560793;28;20065;-47
2023/10/20 17:07:09;;;;;;;;;;;;;;;5.36;86.38;98456.47;15557176;28;20050;-48
2023/10/20 17:14:43;;;;;;;0.00;0.00;;;;;;;5.18;86.61;98454.78;15557259;28;20405;-46
2023/10/20 17:22:17;;;;;;;0.03;0.03;;;;;;;5.30;86.74;98446.78;15557879;28;20507;-47
2023/10/20 17:29:50;;;;;;;0.88;0.43;;;;;;;5.37;86.60;98455.47;15557225;28;20147;-47
2023/10/20 17:37:24;;;;;;;0.10;0.10;;;;;;;5.41;86.78;98450.47;15541704;28;20526;-48
2023/10/20 17:44:57;;;;;;;0.10;0.10;;;;;;;5.53;86.70;98432.66;15569177;28;20041;-48
2023/10/20 17:52:32;;;;;;;0.00;0.00;;;;;;;5.55;86.94;98459.84;15552382;28;20423;-47
2023/10/20 18:00:11;;;;;;;0.00;0.00;;;;;;;6.20;84.89;98475.56;15550716;28;20065;-48
2023/10/20 18:07:49;;;;;;;0.13;0.13;;;;;;;6.29;84.14;98478.63;15555833;28;20076;-45
2023/10/20 18:15:22;;;;;;;1.08;0.73;;;;;;;6.17;85.35;98476.03;15552929;28;20096;-47
2023/10/20 18:22:56;;;;;;;;;;;;;;;6.17;85.57;98515.19;15554701;28;20042;-47
2023/10/20 18:30:30;;;;;;;0.30;0.20;;;;;;;6.41;84.88;98516.72;15557123;28;19940;-50
2023/10/20 18:38:05;;;;;;;0.00;0.00;;;;;;;6.21;85.95;98514.47;15550832;28;20145;-49
2023/10/20 18:45:39;;;;;;;0.00;0.00;;;;;;;6.16;86.56;98511.72;15551646;28;20042;-49
2023/10/20 18:53:14;;;;;;;0.00;0.00;;;;;;;6.36;85.56;98535.28;15555031;28;20561;-49
2023/10/20 19:00:46;;;;;;;0.00;0.00;;;;;;;6.45;85.71;98557.84;15562851;28;20069;-48
2023/10/20 19:08:21;;;;;;;0.10;0.10;;;;;;;6.29;85.95;98567.34;15550259;28;20056;-49
2023/10/20 19:15:55;;;;;;;0.00;0.00;;;;;;;6.65;85.12;98581.41;15550021;28;20045;-51
2023/10/20 19:23:30;;;;;;;0.63;0.63;;;;;;;6.74;85.00;98581.81;15549368;28;20052;-49
2023/10/20 19:31:07;;;;;;;0.57;0.57;;;;;;;6.52;86.51;98568.34;15556037;28;20064;-51
2023/10/20 19:38:41;;;;;;;0.05;0.05;;;;;;;6.80;85.42;98560.34;15572911;28;20050;-47
2023/10/20 19:46:15;;;;;;;0.30;0.30;;;;;;;6.33;86.90;98538.41;15563527;28;20042;-48
2023/10/20 19:53:49;;;;;;;1.27;1.10;;;;;;;6.20;87.96;98517.34;15559087;28;20112;-48
2023/10/20 20:01:24;;;;;;;0.10;0.10;;;;;;;6.64;86.68;98543.25;15570923;28;20041;-48
2023/10/20 20:09:00;;;;;;;0.35;0.35;;;;;;;6.39;87.01;98556.94;15556653;28;20399;-46
2023/10/20 20:16:34;;;;;;;0.10;0.10;;;;;;;6.62;86.18;98560.53;15558091;28;20111;-48
2023/10/20 20:24:10;;;;;;;0.00;0.00;;;;;;;6.72;86.58;98551.94;15556564;28;20046;-54
2023/10/20 20:31:43;;;;;;;0.10;0.10;;;;;;;6.65;86.37;98566.22;15549696;28;20042;-47
2023/10/20 20:39:18;;;;;;;0.15;0.15;;;;;;;6.73;86.64;98581.03;15558135;28;20270;-48
2023/10/20 20:46:51;;;;;;;0.20;0.20;;;;;;;6.62;86.92;98569.38;15559544;28;20042;-51
2023/10/20 20:54:26;;;;;;;0.05;0.05;;;;;;;6.74;87.02;98579.16;15557093;28;20463;-48
2023/10/20 21:02:01;;;;;;;0.13;0.13;;;;;;;6.73;86.48;98593.53;15558974;28;20038;-51
2023/10/20 21:09:35;;;;;;;0.35;0.35;;;;;;;6.63;87.69;98564.84;15556524;28;20057;-48
2023/10/20 21:17:10;;;;;;;0.40;0.40;;;;;;;6.68;87.58;98602.25;15557639;28;20045;-48
2023/10/20 21:24:46;;;;;;;0.00;0.00;;;;;;;6.82;87.00;98594.78;15560147;28;20164;-51
2023/10/20 21:32:21;;;;;;;0.38;0.35;;;;;;;6.91;86.09;98601.34;15555721;28;20045;-48
2023/10/20 21:39:56;;;;;;;0.13;0.13;;;;;;;6.96;86.72;98596.09;15554436;28;20052;-50
2023/10/20 21:47:29;;;;;;;0.00;0.00;;;;;;;7.27;85.59;98608.09;15555143;28;20141;-48
2023/10/20 21:55:05;;;;;;;0.15;0.15;;;;;;;7.11;85.58;98608.91;15555322;28;20495;-47
2023/10/20 22:02:43;;;;;;;0.50;0.50;;;;;;;7.10;86.12;98602.75;15551968;28;20046;-49
2023/10/20 22:10:18;;;;;;;0.00;0.00;;;;;;;7.23;85.89;98577.66;15553918;28;20506;-48
2023/10/20 22:17:52;;;;;;;0.10;0.10;;;;;;;7.35;85.41;98606.91;15550868;28;20050;-48
2023/10/20 22:25:26;;;;;;;0.17;0.17;;;;;;;7.22;86.13;98610.69;15553938;28;20037;-50
2023/10/20 22:33:01;;;;;;;0.00;0.00;;;;;;;7.03;86.19;98604.75;15558439;28;20091;-48
2023/10/20 22:40:36;;;;;;;;;;;;;;;7.32;85.12;98618.06;15558565;28;20054;-47
2023/10/20 22:48:12;;;;;;;9.52;2.75;;;;;;;7.40;85.20;98620.34;15552118;28;20412;-51
2023/10/20 22:55:47;;;;;;;;;;;;;;;7.40;85.28;98617.66;15541869;28;20097;-52
2023/10/20 23:03:20;;;;;;;1.10;0.77;;;;;;;7.51;84.45;98624.81;15544074;28;20268;-48
2023/10/20 23:11:03;;;;;;;0.30;0.30;;;;;;;7.54;84.82;98648.34;15563824;28;20503;-48
2023/10/20 23:18:37;;;;;;;3.08;1.25;;;;;;;7.23;85.93;98643.50;15563240;28;20387;-48
2023/10/20 23:26:12;;;;;;;1.23;1.05;;;;;;;7.56;85.47;98664.13;15563462;28;20072;-48
2023/10/20 23:33:46;;;;;;;0.28;0.28;;;;;;;7.49;85.28;98652.78;15563046;28;20046;-50
2023/10/20 23:41:20;;;;;;;0.00;0.00;;;;;;;7.65;84.03;98692.06;15563105;28;20442;-50
2023/10/20 23:48:54;;;;;;;2.50;1.05;;;;;;;7.89;84.14;98709.53;15563329;28;20641;-49
2023/10/20 23:56:29;;;;;;;10.45;2.67;;;;;;;7.83;83.97;98737.22;15544662;28;20521;-49
